METAR Data
IDs: Format: Raw Decoded Include TAF

Data at: 0238 UTC 18 Jun 2019

PAVA 180156Z AUTO 31012KT 10SM CLR 18/11 A2974 RMK AO2 SLP153 T01780111 PNO $
PAVA 180056Z AUTO 34015KT 10SM CLR 18/08 A2975 RMK AO2 SLP156 T01830083 PNO $
PAVA 172356Z AUTO 33011KT 10SM CLR 17/10 A2976 RMK AO2 SLP160 6//// T01720100 10183 20167 58006 PNO $
PAVA 172256Z AUTO 31014G19KT 10SM CLR 17/11 A2977 RMK AO2 SLP163 T01720106 PNO $
PAVA 172156Z AUTO 33014KT 10SM CLR 18/06 A2978 RMK AO2 SLP166 T01780061 PNO $
PAVA 172056Z AUTO 34014KT 10SM CLR 18/08 A2978 RMK AO2 SLP166 6//// T01780078 58001 PNO $
PAVA 171956Z AUTO 33017KT 10SM CLR 18/07 A2978 RMK AO2 SLP169 T01780067 PNO $
PAVA 171856Z AUTO 35015KT 10SM CLR 17/11 A2979 RMK AO2 SLP170 T01720111 PNO $
PAVA 171756Z AUTO 35014KT 10SM CLR 17/11 A2978 RMK AO2 SLP168 6//// T01720111 10172 20133 58001 PNO $
PAVA 171656Z AUTO 36016KT 10SM SCT095 16/12 A2979 RMK AO2 SLP169 T01610117 PNO $
PAVA 171556Z AUTO 35012KT 10SM CLR 15/11 A2978 RMK AO2 SLP168 T01500111 PNO $
PAVA 171456Z AUTO 34012KT 10SM OVC085 14/11 A2978 RMK AO2 SLP169 6//// T01440111 53000 PNO $
PAVA 171356Z AUTO 33011KT 10SM FEW090 13/11 A2978 RMK AO2 SLP166 T01330106 PNO $
PAVA 171256Z AUTO 34017KT 10SM OVC090 14/11 A2977 RMK AO2 SLP165 T01390106 PNO $
PAVA 171156Z AUTO 35015KT 10SM OVC090 14/11 A2978 RMK AO2 SLP168 6//// 7//// T01440106 10167 20139 58008 PNO $
PAVA 171056Z AUTO 35013KT 10SM OVC075 14/11 A2979 RMK AO2 SLP172 T01440106 PNO $
PAVA 170956Z AUTO 35012KT 10SM SCT070 OVC090 14/11 A2981 RMK AO2 SLP177 T01390111 PNO $
PAVA 170856Z AUTO 34016KT 10SM OVC085 14/11 A2980 RMK AO2 SLP176 6//// T01440111 50000 PNO $
PAVA 170756Z AUTO 34015KT 10SM FEW090 14/11 A2980 RMK AO2 SLP176 T01440111 402000094 PNO $
PAVA 170656Z AUTO 36015KT 10SM FEW085 BKN100 16/12 A2981 RMK AO2 SLP177 T01560117 PNO $
PAVA 170556Z AUTO 35017KT 10SM CLR 17/09 A2980 RMK AO2 SLP176 6//// T01670094 10200 20167 51002 PNO $
PAVA 170456Z AUTO 35018KT 10SM FEW100 18/10 A2980 RMK AO2 PK WND 34027/0433 SLP175 T01780100 PNO $
PAVA 170356Z AUTO 34019KT 10SM BKN085 17/12 A2981 RMK AO2 PK WND 35026/0320 SLP176 T01720122 PNO $
PAVA 170256Z AUTO 35020G25KT 10SM FEW075 BKN085 18/11 A2980 RMK AO2 PK WND 35027/0213 SLP174 6//// T01830106 55005 PNO $
PAVA 170156Z AUTO 35022G26KT 10SM FEW090 19/12 A2979 RMK AO2 PK WND 34027/0140 SLP172 T01940117 PNO $
PAVA 170056Z AUTO 34019KT 8SM FEW080 19/11 A2981 RMK AO2 SLP177 T01890111 PNO $
PAVA 162356Z AUTO 35017KT 10SM FEW050 SCT075 19/12 A2981 RMK AO2 SLP179 6//// T01940117 10194 20144 58006 PNO $
PAVA 162256Z AUTO 36014KT 10SM FEW042 SCT055 BKN075 19/12 A2982 RMK AO2 SLP182 T01890117 PNO $
PAVA 162156Z AUTO 02011KT 10SM FEW044 BKN070 18/10 A2983 RMK AO2 SLP185 T01830100 PNO $
PAVA 162056Z AUTO 01013KT 10SM SCT028 SCT070 18/12 A2983 RMK AO2 SLP185 6//// T01780117 52000 PNO $
PAVA 161956Z AUTO 36010KT 10SM FEW020 17/12 A2984 RMK AO2 SLP186 T01670117 PNO $
PAVA 161856Z AUTO 02009KT 10SM CLR 16/11 A2983 RMK AO2 SLP184 T01610111 PNO $
PAVA 161756Z AUTO 36007KT 10SM CLR 14/11 A2983 RMK AO2 SLP185 6//// T01440106 10144 20094 53005 PNO $
PAVA 161656Z AUTO 36006KT 10SM CLR 13/10 A2983 RMK AO2 SLP184 T01280100 PNO $
PAVA 161556Z AUTO 36005KT 10SM FEW060 12/10 A2982 RMK AO2 SLP180 T01170100 PNO $
PAVA 161456Z AUTO 02004KT 10SM SCT043 OVC050 10/09 A2982 RMK AO2 SLP180 6//// T01000094 52012 PNO $